sensor_id;sensor_type;location;lat;lon;timestamp;pressure;altitude;pressure_sealevel;temperature;humidity
23166;BME280;11751;42.700;24.170;2023-12-29T00:01:31;94575.63;;;1.40;96.16
23166;BME280;11751;42.700;24.170;2023-12-29T00:03:57;94560.81;;;1.38;96.28
23166;BME280;11751;42.700;24.170;2023-12-29T00:06:22;94570.22;;;1.26;97.49
23166;BME280;11751;42.700;24.170;2023-12-29T00:08:48;94578.03;;;1.27;97.91
23166;BME280;11751;42.700;24.170;2023-12-29T00:11:20;94564.56;;;1.15;97.86
23166;BME280;11751;42.700;24.170;2023-12-29T00:13:46;94567.16;;;1.24;97.18
23166;BME280;11751;42.700;24.170;2023-12-29T00:16:12;94570.91;;;1.21;96.75
23166;BME280;11751;42.700;24.170;2023-12-29T00:18:38;94571.59;;;1.16;97.22
23166;BME280;11751;42.700;24.170;2023-12-29T00:21:04;94574.75;;;1.29;96.52
23166;BME280;11751;42.700;24.170;2023-12-29T00:23:30;94568.09;;;1.15;97.37
23166;BME280;11751;42.700;24.170;2023-12-29T00:25:55;94567.25;;;1.09;98.12
23166;BME280;11751;42.700;24.170;2023-12-29T00:28:20;94558.09;;;1.18;97.12
23166;BME280;11751;42.700;24.170;2023-12-29T00:30:46;94559.22;;;1.06;97.53
23166;BME280;11751;42.700;24.170;2023-12-29T00:33:11;94563.53;;;1.12;97.16
23166;BME280;11751;42.700;24.170;2023-12-29T00:35:37;94563.59;;;1.18;96.70
23166;BME280;11751;42.700;24.170;2023-12-29T00:38:04;94564.56;;;1.15;96.81
23166;BME280;11751;42.700;24.170;2023-12-29T00:40:29;94566.25;;;1.07;97.32
23166;BME280;11751;42.700;24.170;2023-12-29T00:42:54;94572.78;;;1.09;96.91
23166;BME280;11751;42.700;24.170;2023-12-29T00:45:20;94573.84;;;1.12;96.67
23166;BME280;11751;42.700;24.170;2023-12-29T00:47:46;94567.47;;;1.06;96.66
23166;BME280;11751;42.700;24.170;2023-12-29T00:50:13;94560.66;;;1.01;97.57
23166;BME280;11751;42.700;24.170;2023-12-29T00:52:39;94561.97;;;1.06;97.05
23166;BME280;11751;42.700;24.170;2023-12-29T00:55:05;94564.66;;;1.00;97.61
23166;BME280;11751;42.700;24.170;2023-12-29T00:57:30;94560.16;;;1.03;97.34
23166;BME280;11751;42.700;24.170;2023-12-29T00:59:55;94561.44;;;1.02;97.32
23166;BME280;11751;42.700;24.170;2023-12-29T01:02:21;94554.41;;;1.01;97.12
23166;BME280;11751;42.700;24.170;2023-12-29T01:04:46;94556.09;;;0.98;98.00
23166;BME280;11751;42.700;24.170;2023-12-29T01:07:12;94558.06;;;0.92;98.03
23166;BME280;11751;42.700;24.170;2023-12-29T01:09:38;94563.06;;;0.94;97.73
23166;BME280;11751;42.700;24.170;2023-12-29T01:12:05;94560.25;;;0.88;98.57
23166;BME280;11751;42.700;24.170;2023-12-29T01:14:31;94561.59;;;0.93;98.12
23166;BME280;11751;42.700;24.170;2023-12-29T01:16:56;94553.84;;;0.97;97.39
23166;BME280;11751;42.700;24.170;2023-12-29T01:19:22;94554.81;;;0.74;98.55
23166;BME280;11751;42.700;24.170;2023-12-29T01:21:47;94557.19;;;0.81;97.93
23166;BME280;11751;42.700;24.170;2023-12-29T01:24:12;94558.56;;;0.71;98.62
23166;BME280;11751;42.700;24.170;2023-12-29T01:26:38;94556.63;;;0.77;98.17
23166;BME280;11751;42.700;24.170;2023-12-29T01:29:04;94555.66;;;0.80;97.82
23166;BME280;11751;42.700;24.170;2023-12-29T01:31:31;94558.41;;;0.80;97.33
23166;BME280;11751;42.700;24.170;2023-12-29T01:33:57;94558.34;;;0.75;97.63
23166;BME280;11751;42.700;24.170;2023-12-29T01:36:22;94550.00;;;0.69;98.39
23166;BME280;11751;42.700;24.170;2023-12-29T01:38:48;94546.44;;;0.63;98.48
23166;BME280;11751;42.700;24.170;2023-12-29T01:41:13;94543.19;;;0.65;98.73
23166;BME280;11751;42.700;24.170;2023-12-29T01:46:25;94540.94;;;0.63;99.82
23166;BME280;11751;42.700;24.170;2023-12-29T01:48:51;94540.84;;;0.78;99.40
23166;BME280;11751;42.700;24.170;2023-12-29T01:51:17;94543.69;;;0.83;99.12
23166;BME280;11751;42.700;24.170;2023-12-29T01:53:44;94529.63;;;0.81;98.64
23166;BME280;11751;42.700;24.170;2023-12-29T01:56:10;94527.66;;;0.87;98.10
23166;BME280;11751;42.700;24.170;2023-12-29T01:58:35;94525.69;;;0.87;97.90
23166;BME280;11751;42.700;24.170;2023-12-29T02:01:02;94528.22;;;0.91;97.35
23166;BME280;11751;42.700;24.170;2023-12-29T02:03:27;94530.72;;;0.89;97.48
23166;BME280;11751;42.700;24.170;2023-12-29T02:05:54;94527.00;;;0.92;96.78
23166;BME280;11751;42.700;24.170;2023-12-29T02:08:22;94527.66;;;0.87;96.66
23166;BME280;11751;42.700;24.170;2023-12-29T02:10:48;94533.19;;;0.87;96.29
23166;BME280;11751;42.700;24.170;2023-12-29T02:13:13;94525.13;;;0.83;96.05
23166;BME280;11751;42.700;24.170;2023-12-29T02:15:39;94526.59;;;0.79;96.43
23166;BME280;11751;42.700;24.170;2023-12-29T02:18:06;94517.09;;;0.60;97.06
23166;BME280;11751;42.700;24.170;2023-12-29T02:20:33;94508.25;;;0.56;97.32
23166;BME280;11751;42.700;24.170;2023-12-29T02:22:58;94516.25;;;0.54;98.08
23166;BME280;11751;42.700;24.170;2023-12-29T02:25:25;94514.53;;;0.57;98.07
23166;BME280;11751;42.700;24.170;2023-12-29T02:27:59;94518.41;;;0.65;97.80
23166;BME280;11751;42.700;24.170;2023-12-29T02:33:05;94521.09;;;0.59;97.01
23166;BME280;11751;42.700;24.170;2023-12-29T02:35:35;94523.09;;;0.59;97.45
23166;BME280;11751;42.700;24.170;2023-12-29T02:38:03;94510.75;;;0.54;96.83
23166;BME280;11751;42.700;24.170;2023-12-29T02:40:29;94514.41;;;0.46;97.59
23166;BME280;11751;42.700;24.170;2023-12-29T02:42:54;94514.63;;;0.42;97.25
23166;BME280;11751;42.700;24.170;2023-12-29T02:45:20;94512.00;;;0.33;98.23
23166;BME280;11751;42.700;24.170;2023-12-29T02:47:47;94505.19;;;0.29;98.89
23166;BME280;11751;42.700;24.170;2023-12-29T02:50:13;94500.41;;;0.29;99.19
23166;BME280;11751;42.700;24.170;2023-12-29T02:52:39;94507.97;;;0.34;99.33
23166;BME280;11751;42.700;24.170;2023-12-29T02:55:04;94507.59;;;0.41;98.50
23166;BME280;11751;42.700;24.170;2023-12-29T02:57:30;94507.44;;;0.30;98.97
23166;BME280;11751;42.700;24.170;2023-12-29T02:59:55;94502.75;;;0.36;98.93
23166;BME280;11751;42.700;24.170;2023-12-29T03:02:21;94503.03;;;0.38;98.36
23166;BME280;11751;42.700;24.170;2023-12-29T03:04:47;94500.22;;;0.33;98.88
23166;BME280;11751;42.700;24.170;2023-12-29T03:07:12;94500.06;;;0.42;98.86
23166;BME280;11751;42.700;24.170;2023-12-29T03:09:37;94504.34;;;0.43;98.22
23166;BME280;11751;42.700;24.170;2023-12-29T03:12:03;94482.59;;;0.25;99.00
23166;BME280;11751;42.700;24.170;2023-12-29T03:14:29;94483.16;;;0.29;98.82
23166;BME280;11751;42.700;24.170;2023-12-29T03:16:54;94489.41;;;0.29;98.21
23166;BME280;11751;42.700;24.170;2023-12-29T03:19:20;94477.00;;;0.19;98.99
23166;BME280;11751;42.700;24.170;2023-12-29T03:21:46;94482.09;;;0.06;99.74
23166;BME280;11751;42.700;24.170;2023-12-29T03:24:11;94478.75;;;0.17;98.95
23166;BME280;11751;42.700;24.170;2023-12-29T03:26:37;94474.03;;;0.23;98.91
23166;BME280;11751;42.700;24.170;2023-12-29T03:29:02;94472.00;;;0.18;98.77
23166;BME280;11751;42.700;24.170;2023-12-29T03:31:27;94464.34;;;0.07;99.36
23166;BME280;11751;42.700;24.170;2023-12-29T03:33:53;94472.06;;;0.03;100.00
23166;BME280;11751;42.700;24.170;2023-12-29T03:36:18;94475.22;;;0.16;99.73
23166;BME280;11751;42.700;24.170;2023-12-29T03:38:44;94472.75;;;0.18;99.62
23166;BME280;11751;42.700;24.170;2023-12-29T03:41:09;94464.75;;;0.20;99.46
23166;BME280;11751;42.700;24.170;2023-12-29T03:43:34;94473.31;;;0.22;99.89
23166;BME280;11751;42.700;24.170;2023-12-29T03:46:00;94474.47;;;0.16;99.57
23166;BME280;11751;42.700;24.170;2023-12-29T03:48:25;94470.28;;;0.20;99.66
23166;BME280;11751;42.700;24.170;2023-12-29T03:50:51;94462.28;;;0.22;100.00
23166;BME280;11751;42.700;24.170;2023-12-29T03:53:16;94460.00;;;0.21;100.00
23166;BME280;11751;42.700;24.170;2023-12-29T03:55:41;94463.16;;;0.14;99.06
23166;BME280;11751;42.700;24.170;2023-12-29T03:58:07;94460.22;;;0.17;99.11
23166;BME280;11751;42.700;24.170;2023-12-29T04:00:32;94459.31;;;0.26;98.51
23166;BME280;11751;42.700;24.170;2023-12-29T04:02:58;94452.97;;;0.20;98.88
23166;BME280;11751;42.700;24.170;2023-12-29T04:05:23;94442.72;;;0.20;98.29
23166;BME280;11751;42.700;24.170;2023-12-29T04:07:49;94448.25;;;0.20;97.90
23166;BME280;11751;42.700;24.170;2023-12-29T04:10:14;94445.41;;;0.15;98.31
23166;BME280;11751;42.700;24.170;2023-12-29T04:12:40;94454.69;;;0.17;97.67
23166;BME280;11751;42.700;24.170;2023-12-29T04:15:05;94455.72;;;0.20;98.04
23166;BME280;11751;42.700;24.170;2023-12-29T04:17:31;94449.41;;;0.14;97.94
23166;BME280;11751;42.700;24.170;2023-12-29T04:19:57;94443.53;;;0.06;98.42
23166;BME280;11751;42.700;24.170;2023-12-29T04:22:22;94441.78;;;0.03;98.24
23166;BME280;11751;42.700;24.170;2023-12-29T04:24:48;94443.53;;;0.06;97.83
23166;BME280;11751;42.700;24.170;2023-12-29T04:27:16;94447.53;;;0.05;97.57
23166;BME280;11751;42.700;24.170;2023-12-29T04:29:43;94444.50;;;-0.16;98.34
23166;BME280;11751;42.700;24.170;2023-12-29T04:32:09;94453.59;;;-0.10;98.82
23166;BME280;11751;42.700;24.170;2023-12-29T04:34:34;94457.03;;;-0.15;99.73
23166;BME280;11751;42.700;24.170;2023-12-29T04:36:59;94469.06;;;-0.13;100.00
23166;BME280;11751;42.700;24.170;2023-12-29T04:39:25;94466.25;;;-0.18;100.00
23166;BME280;11751;42.700;24.170;2023-12-29T04:41:50;94454.06;;;-0.12;100.00
23166;BME280;11751;42.700;24.170;2023-12-29T04:44:16;94459.28;;;-0.14;100.00
23166;BME280;11751;42.700;24.170;2023-12-29T04:46:41;94464.31;;;-0.12;100.00
23166;BME280;11751;42.700;24.170;2023-12-29T04:49:07;94462.13;;;-0.08;99.94
23166;BME280;11751;42.700;24.170;2023-12-29T04:51:33;94468.13;;;-0.10;99.66
23166;BME280;11751;42.700;24.170;2023-12-29T04:53:58;94469.44;;;-0.05;99.21
23166;BME280;11751;42.700;24.170;2023-12-29T04:56:23;94466.84;;;-0.09;99.19
23166;BME280;11751;42.700;24.170;2023-12-29T04:58:51;94477.69;;;-0.05;98.59
23166;BME280;11751;42.700;24.170;2023-12-29T05:01:16;94469.66;;;-0.23;100.00
23166;BME280;11751;42.700;24.170;2023-12-29T05:03:42;94465.13;;;-0.26;100.00
23166;BME280;11751;42.700;24.170;2023-12-29T05:06:07;94475.16;;;-0.23;100.00
23166;BME280;11751;42.700;24.170;2023-12-29T05:08:32;94473.84;;;-0.28;100.00
23166;BME280;11751;42.700;24.170;2023-12-29T05:10:58;94477.00;;;-0.35;100.00
23166;BME280;11751;42.700;24.170;2023-12-29T05:13:23;94476.13;;;-0.26;100.00
23166;BME280;11751;42.700;24.170;2023-12-29T05:15:49;94472.69;;;-0.21;100.00
23166;BME280;11751;42.700;24.170;2023-12-29T05:18:14;94484.06;;;-0.14;99.70
23166;BME280;11751;42.700;24.170;2023-12-29T05:20:40;94478.19;;;-0.21;99.39
23166;BME280;11751;42.700;24.170;2023-12-29T05:23:05;94489.41;;;-0.25;99.95
23166;BME280;11751;42.700;24.170;2023-12-29T05:25:30;94475.84;;;-0.28;100.00
23166;BME280;11751;42.700;24.170;2023-12-29T05:27:56;94478.81;;;-0.32;100.00
23166;BME280;11751;42.700;24.170;2023-12-29T05:30:21;94479.84;;;-0.29;100.00
23166;BME280;11751;42.700;24.170;2023-12-29T05:32:47;94479.94;;;-0.38;100.00
23166;BME280;11751;42.700;24.170;2023-12-29T05:35:12;94474.03;;;-0.31;100.00
23166;BME280;11751;42.700;24.170;2023-12-29T05:37:37;94472.69;;;-0.21;100.00
23166;BME280;11751;42.700;24.170;2023-12-29T05:40:03;94470.63;;;-0.26;100.00
23166;BME280;11751;42.700;24.170;2023-12-29T05:42:29;94469.13;;;-0.27;100.00
23166;BME280;11751;42.700;24.170;2023-12-29T05:44:55;94474.22;;;-0.20;100.00
23166;BME280;11751;42.700;24.170;2023-12-29T05:47:20;94464.44;;;-0.21;100.00
23166;BME280;11751;42.700;24.170;2023-12-29T05:49:46;94473.25;;;-0.17;100.00
23166;BME280;11751;42.700;24.170;2023-12-29T05:52:11;94471.06;;;-0.13;99.68
23166;BME280;11751;42.700;24.170;2023-12-29T05:54:36;94481.69;;;-0.06;99.43
23166;BME280;11751;42.700;24.170;2023-12-29T05:57:02;94475.31;;;-0.12;99.07
23166;BME280;11751;42.700;24.170;2023-12-29T05:59:28;94473.41;;;-0.06;98.73
23166;BME280;11751;42.700;24.170;2023-12-29T06:01:53;94470.78;;;-0.15;98.58
23166;BME280;11751;42.700;24.170;2023-12-29T06:04:19;94466.25;;;-0.18;98.54
23166;BME280;11751;42.700;24.170;2023-12-29T06:06:44;94468.91;;;-0.24;98.40
23166;BME280;11751;42.700;24.170;2023-12-29T06:09:10;94466.78;;;-0.14;97.85
23166;BME280;11751;42.700;24.170;2023-12-29T06:11:36;94469.28;;;-0.16;98.52
23166;BME280;11751;42.700;24.170;2023-12-29T06:14:02;94439.81;;;-0.30;98.86
23166;BME280;11751;42.700;24.170;2023-12-29T06:16:27;94459.06;;;-0.30;99.02
23166;BME280;11751;42.700;24.170;2023-12-29T06:18:55;94470.22;;;-0.19;99.02
23166;BME280;11751;42.700;24.170;2023-12-29T06:21:20;94463.63;;;-0.27;99.31
23166;BME280;11751;42.700;24.170;2023-12-29T06:23:46;94468.13;;;-0.24;99.54
23166;BME280;11751;42.700;24.170;2023-12-29T06:26:18;94470.72;;;-0.21;99.62
23166;BME280;11751;42.700;24.170;2023-12-29T06:28:45;94469.66;;;-0.23;99.69
23166;BME280;11751;42.700;24.170;2023-12-29T06:31:11;94462.09;;;-0.28;99.99
23166;BME280;11751;42.700;24.170;2023-12-29T06:33:36;94467.75;;;-0.17;99.64
23166;BME280;11751;42.700;24.170;2023-12-29T06:36:05;94471.75;;;-0.18;99.55
23166;BME280;11751;42.700;24.170;2023-12-29T06:38:31;94468.13;;;-0.24;100.00
23166;BME280;11751;42.700;24.170;2023-12-29T06:41:02;94472.09;;;-0.11;100.00
23166;BME280;11751;42.700;24.170;2023-12-29T06:43:27;94461.09;;;-0.11;100.00
23166;BME280;11751;42.700;24.170;2023-12-29T06:45:53;94459.59;;;-0.12;100.00
23166;BME280;11751;42.700;24.170;2023-12-29T06:48:18;94471.69;;;-0.04;100.00
23166;BME280;11751;42.700;24.170;2023-12-29T06:50:44;94461.84;;;-0.10;100.00
23166;BME280;11751;42.700;24.170;2023-12-29T06:53:09;94455.25;;;0.01;100.00
23166;BME280;11751;42.700;24.170;2023-12-29T06:55:35;94451.13;;;0.11;100.00
23166;BME280;11751;42.700;24.170;2023-12-29T06:58:00;94460.50;;;0.19;100.00
23166;BME280;11751;42.700;24.170;2023-12-29T07:00:26;94466.06;;;0.25;100.00
23166;BME280;11751;42.700;24.170;2023-12-29T07:02:51;94467.94;;;0.33;100.00
23166;BME280;11751;42.700;24.170;2023-12-29T07:05:18;94458.69;;;0.36;100.00
23166;BME280;11751;42.700;24.170;2023-12-29T07:07:44;94449.25;;;0.43;100.00
23166;BME280;11751;42.700;24.170;2023-12-29T07:10:12;94449.66;;;0.56;100.00
23166;BME280;11751;42.700;24.170;2023-12-29T07:12:40;94449.72;;;0.61;100.00
23166;BME280;11751;42.700;24.170;2023-12-29T07:15:05;94447.25;;;0.63;100.00
23166;BME280;11751;42.700;24.170;2023-12-29T07:17:33;94459.88;;;0.75;100.00
23166;BME280;11751;42.700;24.170;2023-12-29T07:19:58;94447.47;;;0.85;100.00
23166;BME280;11751;42.700;24.170;2023-12-29T07:22:23;94447.56;;;0.96;100.00
23166;BME280;11751;42.700;24.170;2023-12-29T07:24:49;94442.16;;;1.07;100.00
23166;BME280;11751;42.700;24.170;2023-12-29T07:27:14;94445.81;;;1.24;100.00
23166;BME280;11751;42.700;24.170;2023-12-29T07:29:41;94433.63;;;1.36;100.00
23166;BME280;11751;42.700;24.170;2023-12-29T07:32:06;94438.00;;;1.48;100.00
23166;BME280;11751;42.700;24.170;2023-12-29T07:34:32;94442.59;;;1.62;100.00
23166;BME280;11751;42.700;24.170;2023-12-29T07:36:57;94432.88;;;1.66;99.93
23166;BME280;11751;42.700;24.170;2023-12-29T07:39:24;94423.63;;;1.74;99.75
23166;BME280;11751;42.700;24.170;2023-12-29T07:41:50;94426.72;;;1.87;99.46
23166;BME280;11751;42.700;24.170;2023-12-29T07:44:16;94426.53;;;1.96;99.34
23166;BME280;11751;42.700;24.170;2023-12-29T07:46:42;94438.41;;;2.13;99.35
23166;BME280;11751;42.700;24.170;2023-12-29T07:49:09;94429.69;;;2.26;99.29
23166;BME280;11751;42.700;24.170;2023-12-29T07:51:39;94441.34;;;2.46;99.05
23166;BME280;11751;42.700;24.170;2023-12-29T07:54:04;94440.88;;;2.58;98.84
23166;BME280;11751;42.700;24.170;2023-12-29T07:56:29;94441.66;;;2.70;98.60
23166;BME280;11751;42.700;24.170;2023-12-29T07:58:55;94441.47;;;2.79;98.42
23166;BME280;11751;42.700;24.170;2023-12-29T08:01:20;94433.69;;;2.88;97.76
23166;BME280;11751;42.700;24.170;2023-12-29T08:03:46;94437.97;;;3.00;97.51
23166;BME280;11751;42.700;24.170;2023-12-29T08:06:11;94435.50;;;3.08;97.55
23166;BME280;11751;42.700;24.170;2023-12-29T08:08:37;94441.78;;;3.25;97.25
23166;BME280;11751;42.700;24.170;2023-12-29T08:11:03;94439.28;;;3.38;96.61
23166;BME280;11751;42.700;24.170;2023-12-29T08:13:28;94434.25;;;3.52;96.64
23166;BME280;11751;42.700;24.170;2023-12-29T08:15:54;94425.44;;;3.65;95.98
23166;BME280;11751;42.700;24.170;2023-12-29T08:18:19;94438.75;;;3.83;95.68
23166;BME280;11751;42.700;24.170;2023-12-29T08:20:45;94438.00;;;3.99;95.19
23166;BME280;11751;42.700;24.170;2023-12-29T08:23:10;94432.16;;;4.13;94.91
23166;BME280;11751;42.700;24.170;2023-12-29T08:25:35;94428.09;;;4.30;94.47
23166;BME280;11751;42.700;24.170;2023-12-29T08:28:04;94424.50;;;4.46;93.66
23166;BME280;11751;42.700;24.170;2023-12-29T08:30:30;94430.72;;;4.63;92.49
23166;BME280;11751;42.700;24.170;2023-12-29T08:32:56;94435.66;;;4.87;91.20
23166;BME280;11751;42.700;24.170;2023-12-29T08:35:21;94432.56;;;5.01;90.53
23166;BME280;11751;42.700;24.170;2023-12-29T08:37:47;94428.50;;;5.07;88.59
23166;BME280;11751;42.700;24.170;2023-12-29T08:40:12;94428.59;;;5.31;87.59
23166;BME280;11751;42.700;24.170;2023-12-29T08:42:37;94424.19;;;5.47;87.05
23166;BME280;11751;42.700;24.170;2023-12-29T08:45:03;94426.38;;;5.59;87.17
23166;BME280;11751;42.700;24.170;2023-12-29T08:47:29;94426.03;;;5.68;86.22
23166;BME280;11751;42.700;24.170;2023-12-29T08:49:54;94424.72;;;5.80;86.28
23166;BME280;11751;42.700;24.170;2023-12-29T08:52:20;94422.00;;;5.98;86.04
23166;BME280;11751;42.700;24.170;2023-12-29T08:54:45;94412.25;;;6.16;85.52
23166;BME280;11751;42.700;24.170;2023-12-29T08:57:11;94416.41;;;6.28;84.40
23166;BME280;11751;42.700;24.170;2023-12-29T08:59:36;94418.72;;;6.24;84.61
23166;BME280;11751;42.700;24.170;2023-12-29T09:02:02;94420.13;;;6.36;84.73
23166;BME280;11751;42.700;24.170;2023-12-29T09:04:28;94429.78;;;6.53;83.79
23166;BME280;11751;42.700;24.170;2023-12-29T09:06:53;94415.47;;;6.68;84.50
23166;BME280;11751;42.700;24.170;2023-12-29T09:09:19;94419.31;;;6.83;84.92
23166;BME280;11751;42.700;24.170;2023-12-29T09:11:44;94411.09;;;6.90;83.87
23166;BME280;11751;42.700;24.170;2023-12-29T09:14:10;94407.19;;;6.99;83.68
23166;BME280;11751;42.700;24.170;2023-12-29T09:16:36;94414.66;;;7.09;83.14
23166;BME280;11751;42.700;24.170;2023-12-29T09:19:02;94413.22;;;7.21;83.95
23166;BME280;11751;42.700;24.170;2023-12-29T09:21:27;94414.25;;;7.37;83.32
23166;BME280;11751;42.700;24.170;2023-12-29T09:23:52;94403.91;;;7.50;84.80
23166;BME280;11751;42.700;24.170;2023-12-29T09:26:18;94407.53;;;7.63;83.86
23166;BME280;11751;42.700;24.170;2023-12-29T09:28:43;94403.81;;;7.74;84.62
23166;BME280;11751;42.700;24.170;2023-12-29T09:31:10;94402.56;;;7.88;83.95
23166;BME280;11751;42.700;24.170;2023-12-29T09:33:35;94398.50;;;8.02;83.12
23166;BME280;11751;42.700;24.170;2023-12-29T09:36:02;94394.69;;;8.18;81.70
23166;BME280;11751;42.700;24.170;2023-12-29T09:38:28;94396.31;;;8.26;80.55
23166;BME280;11751;42.700;24.170;2023-12-29T09:40:55;94382.81;;;8.43;80.05
23166;BME280;11751;42.700;24.170;2023-12-29T09:43:25;94388.94;;;8.54;79.04
23166;BME280;11751;42.700;24.170;2023-12-29T09:45:52;94385.94;;;8.65;78.16
23166;BME280;11751;42.700;24.170;2023-12-29T09:48:19;94378.81;;;8.77;76.41
23166;BME280;11751;42.700;24.170;2023-12-29T09:50:46;94378.47;;;8.94;75.11
23166;BME280;11751;42.700;24.170;2023-12-29T09:53:12;94376.63;;;9.09;73.21
23166;BME280;11751;42.700;24.170;2023-12-29T09:55:39;94382.19;;;9.22;73.08
23166;BME280;11751;42.700;24.170;2023-12-29T09:58:06;94375.47;;;9.38;71.45
23166;BME280;11751;42.700;24.170;2023-12-29T10:00:33;94361.84;;;9.55;71.55
23166;BME280;11751;42.700;24.170;2023-12-29T10:03:00;94370.19;;;9.68;70.08
23166;BME280;11751;42.700;24.170;2023-12-29T10:05:25;94368.03;;;9.74;67.73
23166;BME280;11751;42.700;24.170;2023-12-29T10:07:52;94360.34;;;9.95;68.36
23166;BME280;11751;42.700;24.170;2023-12-29T10:10:19;94346.31;;;10.08;67.52
23166;BME280;11751;42.700;24.170;2023-12-29T10:12:47;94344.34;;;10.16;65.84
23166;BME280;11751;42.700;24.170;2023-12-29T10:15:38;94341.66;;;10.30;67.28
23166;BME280;11751;42.700;24.170;2023-12-29T10:18:14;94345.03;;;10.36;66.23
23166;BME280;11751;42.700;24.170;2023-12-29T10:23:25;94331.78;;;10.65;63.68
23166;BME280;11751;42.700;24.170;2023-12-29T10:25:54;94326.72;;;10.63;62.97
23166;BME280;11751;42.700;24.170;2023-12-29T10:28:20;94325.88;;;10.83;63.55
23166;BME280;11751;42.700;24.170;2023-12-29T10:30:47;94321.09;;;10.99;63.45
23166;BME280;11751;42.700;24.170;2023-12-29T10:33:19;94313.13;;;11.10;63.54
23166;BME280;11751;42.700;24.170;2023-12-29T10:35:57;94315.19;;;11.17;61.79
23166;BME280;11751;42.700;24.170;2023-12-29T10:38:23;94309.78;;;11.19;63.05
23166;BME280;11751;42.700;24.170;2023-12-29T10:40:48;94304.34;;;11.21;62.84
23166;BME280;11751;42.700;24.170;2023-12-29T10:43:22;94303.69;;;11.43;62.29
23166;BME280;11751;42.700;24.170;2023-12-29T10:45:47;94301.84;;;11.45;62.62
23166;BME280;11751;42.700;24.170;2023-12-29T10:48:21;94303.34;;;11.54;61.56
23166;BME280;11751;42.700;24.170;2023-12-29T10:50:49;94296.81;;;11.66;62.61
23166;BME280;11751;42.700;24.170;2023-12-29T10:53:15;94298.53;;;11.77;61.67
23166;BME280;11751;42.700;24.170;2023-12-29T10:55:44;94285.63;;;11.89;61.27
23166;BME280;11751;42.700;24.170;2023-12-29T10:58:09;94286.91;;;11.95;61.44
23166;BME280;11751;42.700;24.170;2023-12-29T11:00:35;94293.84;;;12.01;62.11
23166;BME280;11751;42.700;24.170;2023-12-29T11:03:01;94273.81;;;12.12;61.08
23166;BME280;11751;42.700;24.170;2023-12-29T11:05:27;94283.94;;;12.15;59.22
23166;BME280;11751;42.700;24.170;2023-12-29T11:07:53;94273.41;;;12.38;60.87
23166;BME280;11751;42.700;24.170;2023-12-29T11:10:22;94272.66;;;12.38;59.38
23166;BME280;11751;42.700;24.170;2023-12-29T11:12:49;94273.78;;;12.42;58.99
23166;BME280;11751;42.700;24.170;2023-12-29T11:15:15;94267.41;;;12.42;59.68
23166;BME280;11751;42.700;24.170;2023-12-29T11:17:42;94267.38;;;12.49;59.17
23166;BME280;11751;42.700;24.170;2023-12-29T11:20:14;94268.69;;;12.48;58.77
23166;BME280;11751;42.700;24.170;2023-12-29T11:22:42;94253.13;;;12.62;58.96
23166;BME280;11751;42.700;24.170;2023-12-29T11:25:08;94255.19;;;12.62;58.73
23166;BME280;11751;42.700;24.170;2023-12-29T11:27:34;94250.69;;;12.66;59.33
23166;BME280;11751;42.700;24.170;2023-12-29T11:30:01;94247.81;;;12.81;58.39
23166;BME280;11751;42.700;24.170;2023-12-29T11:35:28;94262.00;;;12.98;59.63
23166;BME280;11751;42.700;24.170;2023-12-29T11:40:50;94251.16;;;12.94;58.58
23166;BME280;11751;42.700;24.170;2023-12-29T11:43:18;94243.28;;;12.93;58.93
23166;BME280;11751;42.700;24.170;2023-12-29T11:45:44;94246.31;;;12.80;59.33
23166;BME280;11751;42.700;24.170;2023-12-29T11:48:10;94243.81;;;12.99;60.00
23166;BME280;11751;42.700;24.170;2023-12-29T11:50:38;94239.13;;;13.01;59.26
23166;BME280;11751;42.700;24.170;2023-12-29T11:53:07;94235.03;;;12.95;58.99
23166;BME280;11751;42.700;24.170;2023-12-29T11:58:00;94234.44;;;13.04;58.20
23166;BME280;11751;42.700;24.170;2023-12-29T12:00:46;94234.34;;;13.19;57.97
23166;BME280;11751;42.700;24.170;2023-12-29T12:03:28;94241.28;;;13.18;58.73
23166;BME280;11751;42.700;24.170;2023-12-29T12:05:55;94236.88;;;13.00;58.84
23166;BME280;11751;42.700;24.170;2023-12-29T12:08:41;94232.28;;;13.19;58.87
23166;BME280;11751;42.700;24.170;2023-12-29T12:13:53;94231.19;;;13.15;58.74
23166;BME280;11751;42.700;24.170;2023-12-29T12:19:12;94221.97;;;13.22;58.85
23166;BME280;11751;42.700;24.170;2023-12-29T12:21:38;94217.66;;;13.21;59.42
23166;BME280;11751;42.700;24.170;2023-12-29T12:24:04;94216.22;;;13.37;58.57
23166;BME280;11751;42.700;24.170;2023-12-29T12:26:34;94219.41;;;13.41;58.92
23166;BME280;11751;42.700;24.170;2023-12-29T12:29:03;94214.88;;;13.45;59.88
23166;BME280;11751;42.700;24.170;2023-12-29T12:31:29;94221.84;;;13.37;59.24
23166;BME280;11751;42.700;24.170;2023-12-29T12:33:55;94219.44;;;13.33;58.03
23166;BME280;11751;42.700;24.170;2023-12-29T12:36:22;94220.03;;;13.32;58.96
23166;BME280;11751;42.700;24.170;2023-12-29T12:38:55;94223.78;;;13.27;59.56
23166;BME280;11751;42.700;24.170;2023-12-29T12:41:25;94230.78;;;13.18;59.40
23166;BME280;11751;42.700;24.170;2023-12-29T12:46:26;94224.50;;;13.35;58.75
23166;BME280;11751;42.700;24.170;2023-12-29T12:48:52;94218.25;;;13.44;59.15
23166;BME280;11751;42.700;24.170;2023-12-29T12:51:19;94211.53;;;13.39;58.89
23166;BME280;11751;42.700;24.170;2023-12-29T12:53:45;94228.19;;;13.45;58.35
23166;BME280;11751;42.700;24.170;2023-12-29T12:56:13;94219.03;;;13.37;57.90
23166;BME280;11751;42.700;24.170;2023-12-29T12:58:39;94219.03;;;13.37;58.56
23166;BME280;11751;42.700;24.170;2023-12-29T13:01:05;94226.69;;;13.44;58.59
23166;BME280;11751;42.700;24.170;2023-12-29T13:03:31;94224.06;;;13.46;58.68
23166;BME280;11751;42.700;24.170;2023-12-29T13:05:57;94225.91;;;13.51;58.48
23166;BME280;11751;42.700;24.170;2023-12-29T13:08:24;94234.25;;;13.66;58.39
23166;BME280;11751;42.700;24.170;2023-12-29T13:10:51;94231.56;;;13.67;57.34
23166;BME280;11751;42.700;24.170;2023-12-29T13:13:17;94224.53;;;13.59;57.75
23166;BME280;11751;42.700;24.170;2023-12-29T13:15:51;94228.72;;;13.51;57.84